Terminal Aerodrome Forecast
Issued by NWS

Home | Current Version | Previous Version | Text Only | Print | Product List | Glossary On
Versions: 1 2 3 4 5 6 7 8 9 10 11 12
000
FTUS45 KTWC 230527
TAFOLS
TAF
KOLS 230527Z 2306/2406 21010G18KT P6SM FEW100
     FM231200 21012G18KT P6SM VCSH SCT060 SCT100
      TEMPO 2312/2315 SCT060 BKN100
     FM231600 27018G25KT P6SM SCT100
     FM240300 28007KT P6SM SKC=

USA.gov is the U.S. government's official web portal to all federal, state and local government web resources and services.